createdAt,value
2018-08-29T00:01:04.014Z,16.21
2018-08-29T00:04:08.563Z,16.07
2018-08-29T00:07:17.421Z,16.11
2018-08-29T00:10:21.162Z,16.11
2018-08-29T00:13:24.772Z,16.13
2018-08-29T00:16:28.507Z,16.03
2018-08-29T00:19:32.162Z,16.06
2018-08-29T00:22:35.742Z,16.04
2018-08-29T00:25:39.425Z,16.00
2018-08-29T00:28:43.091Z,16.05
2018-08-29T00:31:46.721Z,16.05
2018-08-29T00:34:50.433Z,16.01
2018-08-29T00:37:54.016Z,15.93
2018-08-29T00:40:57.705Z,15.99
2018-08-29T00:44:01.441Z,15.99
2018-08-29T00:47:05.220Z,16.04
2018-08-29T00:50:08.863Z,16.15
2018-08-29T00:53:12.500Z,16.13
2018-08-29T00:56:16.266Z,16.14
2018-08-29T00:59:19.997Z,16.03
2018-08-29T01:02:23.551Z,15.96
2018-08-29T01:05:27.190Z,16.07
2018-08-29T01:08:30.856Z,15.96
2018-08-29T01:11:34.738Z,15.99
2018-08-29T01:14:38.416Z,16.07
2018-08-29T01:17:42.126Z,16.00
2018-08-29T01:20:45.823Z,15.96
2018-08-29T01:23:49.470Z,15.96
2018-08-29T01:26:53.186Z,15.97
2018-08-29T01:29:56.867Z,15.93
2018-08-29T01:33:00.563Z,15.96
2018-08-29T01:36:04.227Z,16.06
2018-08-29T01:39:09.717Z,16.03
2018-08-29T01:42:13.333Z,15.87
2018-08-29T01:45:16.924Z,16.03
2018-08-29T01:48:21.561Z,15.84
2018-08-29T01:51:25.117Z,15.89
2018-08-29T01:54:28.756Z,15.90
2018-08-29T01:57:32.609Z,15.87
2018-08-29T02:00:36.301Z,15.86
2018-08-29T02:03:40.044Z,15.97
2018-08-29T02:06:43.743Z,15.97
2018-08-29T02:09:47.526Z,15.96
2018-08-29T02:12:51.196Z,15.93
2018-08-29T02:15:54.806Z,15.95
2018-08-29T02:18:58.410Z,16.00
2018-08-29T02:22:02.537Z,15.96
2018-08-29T02:25:07.123Z,16.05
2018-08-29T02:28:10.743Z,16.05
2018-08-29T02:31:14.465Z,16.21
2018-08-29T02:34:18.206Z,16.07
2018-08-29T02:37:21.846Z,16.14
2018-08-29T02:40:25.496Z,16.15
2018-08-29T02:43:30.178Z,16.17
2018-08-29T02:46:33.868Z,16.04
2018-08-29T02:49:37.573Z,16.13
2018-08-29T02:52:41.352Z,16.03
2018-08-29T02:55:44.933Z,16.05
2018-08-29T02:58:48.583Z,16.27
2018-08-29T03:01:52.243Z,16.20
2018-08-29T03:04:56.676Z,16.32
2018-08-29T03:08:00.466Z,16.26
2018-08-29T03:11:04.112Z,16.27
2018-08-29T03:14:07.729Z,16.25
2018-08-29T03:17:11.538Z,16.28
2018-08-29T03:20:15.213Z,16.37
2018-08-29T03:23:18.828Z,16.32
2018-08-29T03:26:22.641Z,16.31
2018-08-29T03:29:26.227Z,16.35
2018-08-29T03:32:29.969Z,16.45
2018-08-29T03:35:34.277Z,16.40
2018-08-29T03:38:37.988Z,16.40
2018-08-29T03:41:41.623Z,16.44
2018-08-29T03:44:45.289Z,16.51
2018-08-29T03:47:49.040Z,16.37
2018-08-29T03:50:52.796Z,16.35
2018-08-29T03:53:56.457Z,16.30
2018-08-29T03:57:00.004Z,16.28
2018-08-29T04:00:03.709Z,16.33
2018-08-29T04:03:08.309Z,16.27
2018-08-29T04:06:12.103Z,16.34
2018-08-29T04:09:15.792Z,16.27
2018-08-29T04:12:19.485Z,16.26
2018-08-29T04:15:23.214Z,16.33
2018-08-29T04:18:26.952Z,16.34
2018-08-29T04:21:30.617Z,16.21
2018-08-29T04:24:34.376Z,16.30
2018-08-29T04:27:38.160Z,16.21
2018-08-29T04:30:41.883Z,16.29
2018-08-29T04:33:45.735Z,16.34
2018-08-29T04:36:49.490Z,16.36
2018-08-29T04:39:53.129Z,16.44
2018-08-29T04:42:56.784Z,16.36
2018-08-29T04:46:00.470Z,16.46
2018-08-29T04:49:04.093Z,16.50
2018-08-29T04:52:07.962Z,16.57
2018-08-29T04:55:11.659Z,16.67
2018-08-29T04:58:15.294Z,16.71
2018-08-29T05:01:19.036Z,16.60
2018-08-29T05:04:22.848Z,16.55
2018-08-29T05:07:26.720Z,16.70
2018-08-29T05:10:30.399Z,16.73
2018-08-29T05:13:34.050Z,16.89
2018-08-29T05:16:39.469Z,16.80
2018-08-29T05:19:43.080Z,16.94
2018-08-29T05:22:46.666Z,17.11
2018-08-29T05:25:50.404Z,17.52
2018-08-29T05:28:54.030Z,17.77
2018-08-29T05:31:57.880Z,18.49
2018-08-29T05:35:01.640Z,18.99
2018-08-29T05:38:05.268Z,19.53
2018-08-29T05:41:09.016Z,19.73
2018-08-29T05:44:12.899Z,19.92
2018-08-29T05:47:16.669Z,20.37
2018-08-29T05:50:20.219Z,21.11
2018-08-29T05:53:23.998Z,21.25
2018-08-29T05:56:27.650Z,21.84
2018-08-29T05:59:31.315Z,22.49
2018-08-29T06:02:34.952Z,22.49
2018-08-29T06:05:38.683Z,22.08
2018-08-29T06:08:42.335Z,21.78
2018-08-29T06:11:45.953Z,22.23
2018-08-29T06:14:49.625Z,22.56
2018-08-29T06:17:53.269Z,23.14
2018-08-29T06:20:57.008Z,22.43
2018-08-29T06:24:00.673Z,22.82
2018-08-29T06:27:04.341Z,22.95
2018-08-29T06:30:08.116Z,23.27
2018-08-29T06:33:11.850Z,23.70
2018-08-29T06:36:15.564Z,23.67
2018-08-29T06:39:19.182Z,23.17
2018-08-29T06:42:22.900Z,22.97
2018-08-29T06:45:26.615Z,23.42
2018-08-29T06:48:30.289Z,22.86
2018-08-29T06:51:34.210Z,22.48
2018-08-29T06:54:37.968Z,22.22
2018-08-29T06:57:41.610Z,21.67
2018-08-29T07:00:45.355Z,21.32
2018-08-29T07:03:48.959Z,21.39
2018-08-29T07:06:52.730Z,21.06
2018-08-29T07:09:56.367Z,21.24
2018-08-29T07:13:00.081Z,21.21
2018-08-29T07:16:03.831Z,21.30
2018-08-29T07:19:08.773Z,21.54
2018-08-29T07:22:12.575Z,21.44
2018-08-29T07:25:16.907Z,21.13
2018-08-29T07:28:20.701Z,21.18
2018-08-29T07:31:24.635Z,21.37
2018-08-29T07:34:28.405Z,21.92
2018-08-29T07:37:32.147Z,21.87
2018-08-29T07:40:35.846Z,21.89
2018-08-29T07:43:39.469Z,21.87
2018-08-29T07:46:43.214Z,22.06
2018-08-29T07:49:46.944Z,21.96
2018-08-29T07:52:50.561Z,22.23
2018-08-29T07:55:54.254Z,22.20
2018-08-29T07:58:57.940Z,22.31
2018-08-29T08:02:01.620Z,22.31
2018-08-29T08:05:05.358Z,22.28
2018-08-29T08:08:09.133Z,22.01
2018-08-29T08:11:12.734Z,21.91
2018-08-29T08:14:16.367Z,22.23
2018-08-29T08:17:19.979Z,22.16
2018-08-29T08:20:23.636Z,22.24
2018-08-29T08:23:27.374Z,22.60
2018-08-29T08:26:31.070Z,22.32
2018-08-29T08:29:34.716Z,22.14
2018-08-29T08:32:38.692Z,22.57
2018-08-29T08:35:42.445Z,22.84
2018-08-29T08:38:46.136Z,22.37
2018-08-29T08:41:49.943Z,23.09
2018-08-29T08:44:53.776Z,22.58
2018-08-29T08:47:57.478Z,23.22
2018-08-29T08:51:01.435Z,23.13
2018-08-29T08:54:06.141Z,23.25
2018-08-29T08:57:09.813Z,23.24
2018-08-29T09:00:13.529Z,23.38
2018-08-29T09:03:17.282Z,23.28
2018-08-29T09:06:21.166Z,23.36
2018-08-29T09:09:24.841Z,23.45
2018-08-29T09:12:28.528Z,23.38
2018-08-29T09:15:32.329Z,23.42
2018-08-29T09:18:36.031Z,23.56
2018-08-29T09:21:39.816Z,23.72
2018-08-29T09:24:43.418Z,23.81
2018-08-29T09:27:47.132Z,23.85
2018-08-29T09:30:51.844Z,23.88
2018-08-29T09:33:55.481Z,23.91
2018-08-29T09:36:59.081Z,23.96
2018-08-29T09:40:02.910Z,24.12
2018-08-29T09:43:06.605Z,24.18
2018-08-29T09:46:10.387Z,24.31
2018-08-29T09:49:14.130Z,24.43
2018-08-29T09:52:17.790Z,24.32
2018-08-29T09:55:21.480Z,24.43
2018-08-29T09:58:25.137Z,24.44
2018-08-29T10:01:34.171Z,24.46
2018-08-29T10:04:38.667Z,24.27
2018-08-29T10:07:42.354Z,23.98
2018-08-29T10:10:46.020Z,24.24
2018-08-29T10:13:49.677Z,24.50
2018-08-29T10:16:53.539Z,24.58
2018-08-29T10:19:58.386Z,24.95
2018-08-29T10:23:02.081Z,25.12
2018-08-29T10:26:05.880Z,24.98
2018-08-29T10:29:10.337Z,25.15
2018-08-29T10:32:14.005Z,25.32
2018-08-29T10:35:17.761Z,25.44
2018-08-29T10:38:22.138Z,25.47
2018-08-29T10:41:25.921Z,25.47
2018-08-29T10:44:29.706Z,25.47
2018-08-29T10:47:33.482Z,25.62
2018-08-29T10:50:37.240Z,25.33
2018-08-29T10:53:40.905Z,25.44
2018-08-29T10:56:44.645Z,25.73
2018-08-29T10:59:48.310Z,25.76
2018-08-29T11:02:52.259Z,25.54
2018-08-29T11:05:56.126Z,25.48
2018-08-29T11:08:59.841Z,25.82
2018-08-29T11:12:03.602Z,25.78
2018-08-29T11:15:07.332Z,26.25
2018-08-29T11:18:11.052Z,26.08
2018-08-29T11:21:14.777Z,26.03
2018-08-29T11:24:18.482Z,26.41
2018-08-29T11:27:22.145Z,26.37
2018-08-29T11:30:25.912Z,26.23
2018-08-29T11:33:29.661Z,26.30
2018-08-29T11:36:33.318Z,26.23
2018-08-29T11:39:37.035Z,26.06
2018-08-29T11:42:40.746Z,25.95
2018-08-29T11:45:44.287Z,25.95
2018-08-29T11:48:47.997Z,26.32
2018-08-29T11:51:51.813Z,26.73
2018-08-29T11:54:55.474Z,26.66
2018-08-29T11:57:59.177Z,26.27
2018-08-29T12:01:02.919Z,26.24
2018-08-29T12:04:06.583Z,26.40
2018-08-29T12:07:10.182Z,26.45
2018-08-29T12:10:13.858Z,26.65
2018-08-29T12:13:17.467Z,26.71
2018-08-29T12:16:21.126Z,26.73
2018-08-29T12:19:24.889Z,26.77
2018-08-29T12:22:28.632Z,26.75
2018-08-29T12:25:32.260Z,26.82
2018-08-29T12:28:36.093Z,26.91
2018-08-29T12:31:40.027Z,26.92
2018-08-29T12:34:45.934Z,26.62
2018-08-29T12:37:49.724Z,26.64
2018-08-29T12:40:56.535Z,26.67
2018-08-29T12:44:00.270Z,26.71
2018-08-29T12:47:04.067Z,26.79
2018-08-29T12:50:10.871Z,26.75
2018-08-29T12:53:14.502Z,26.92
2018-08-29T12:56:18.195Z,27.34
2018-08-29T12:59:21.857Z,27.43
2018-08-29T13:02:25.577Z,27.16
2018-08-29T13:05:29.291Z,27.49
2018-08-29T13:08:35.917Z,27.64
2018-08-29T13:11:39.756Z,27.61
2018-08-29T13:14:43.595Z,27.56
2018-08-29T13:17:47.142Z,27.29
2018-08-29T13:20:50.812Z,27.30
2018-08-29T13:23:54.412Z,27.53
2018-08-29T13:26:58.277Z,27.99
2018-08-29T13:30:01.989Z,28.12
2018-08-29T13:33:05.713Z,28.26
2018-08-29T13:36:09.377Z,28.52
2018-08-29T13:39:13.072Z,28.59
2018-08-29T13:42:16.838Z,27.89
2018-08-29T13:45:20.529Z,27.70
2018-08-29T13:48:24.232Z,27.99
2018-08-29T13:51:27.861Z,28.18
2018-08-29T13:54:31.589Z,28.83
2018-08-29T13:57:35.323Z,28.67
2018-08-29T14:00:39.055Z,28.93
2018-08-29T14:03:42.764Z,28.91
2018-08-29T14:06:46.439Z,28.83
2018-08-29T14:09:50.202Z,28.68
2018-08-29T14:12:53.870Z,29.03
2018-08-29T14:15:57.564Z,28.59
2018-08-29T14:19:01.301Z,28.02
2018-08-29T14:22:05.340Z,28.00
2018-08-29T14:25:09.522Z,27.84
2018-08-29T14:28:13.309Z,27.45
2018-08-29T14:31:18.516Z,27.23
2018-08-29T14:34:22.190Z,27.28
2018-08-29T14:37:25.904Z,27.07
2018-08-29T14:40:29.594Z,27.23
2018-08-29T14:43:33.277Z,27.31
2018-08-29T14:46:36.842Z,27.49
2018-08-29T14:49:40.571Z,27.68
2018-08-29T14:52:44.372Z,27.80
2018-08-29T14:55:48.250Z,28.23
2018-08-29T14:58:51.845Z,28.40
2018-08-29T15:02:07.750Z,28.50
2018-08-29T15:05:11.363Z,28.41
2018-08-29T15:08:15.028Z,28.40
2018-08-29T15:11:18.759Z,28.61
2018-08-29T15:14:22.729Z,28.71
2018-08-29T15:17:26.473Z,28.61
2018-08-29T15:20:30.333Z,28.40
2018-08-29T15:23:34.073Z,28.06
2018-08-29T15:26:38.021Z,27.86
2018-08-29T15:29:41.626Z,27.90
2018-08-29T15:32:45.296Z,27.85
2018-08-29T15:35:49.182Z,27.72
2018-08-29T15:38:53.941Z,27.69
2018-08-29T15:41:57.636Z,27.60
2018-08-29T15:45:01.313Z,27.42
2018-08-29T15:48:05.065Z,27.25
2018-08-29T15:51:09.182Z,27.04
2018-08-29T15:54:13.089Z,26.85
2018-08-29T15:57:16.825Z,26.58
2018-08-29T16:00:20.585Z,26.22
2018-08-29T16:03:24.209Z,25.88
2018-08-29T16:06:27.947Z,25.67
2018-08-29T16:09:32.466Z,25.46
2018-08-29T16:12:36.220Z,25.34
2018-08-29T16:15:40.039Z,25.05
2018-08-29T16:18:43.670Z,24.92
2018-08-29T16:21:47.375Z,24.88
2018-08-29T16:24:51.096Z,25.00
2018-08-29T16:27:55.065Z,25.14
2018-08-29T16:30:58.819Z,25.36
2018-08-29T16:34:02.589Z,25.45
2018-08-29T16:37:07.304Z,25.47
2018-08-29T16:40:12.328Z,25.42
2018-08-29T16:43:16.001Z,25.37
2018-08-29T16:46:19.651Z,25.39
2018-08-29T16:49:23.390Z,25.36
2018-08-29T16:52:27.198Z,25.33
2018-08-29T16:55:30.880Z,25.28
2018-08-29T16:58:34.763Z,25.25
2018-08-29T17:01:38.511Z,25.16
2018-08-29T17:04:42.269Z,25.06
2018-08-29T17:07:45.995Z,25.02
2018-08-29T17:10:50.849Z,24.87
2018-08-29T17:13:54.621Z,24.70
2018-08-29T17:16:58.321Z,24.60
2018-08-29T17:20:02.144Z,24.36
2018-08-29T17:23:06.262Z,24.33
2018-08-29T17:26:10.156Z,24.20
2018-08-29T17:29:14.032Z,24.02
2018-08-29T17:32:18.059Z,23.91
2018-08-29T17:35:22.168Z,23.89
2018-08-29T17:38:26.405Z,23.64
2018-08-29T17:41:30.241Z,23.65
2018-08-29T17:44:34.000Z,23.65
2018-08-29T17:47:37.925Z,23.64
2018-08-29T17:50:41.739Z,23.73
2018-08-29T17:53:45.590Z,23.69
2018-08-29T17:56:49.347Z,23.70
2018-08-29T17:59:53.084Z,23.64
2018-08-29T18:02:56.789Z,23.61
2018-08-29T18:06:00.506Z,23.60
2018-08-29T18:09:06.270Z,23.54
2018-08-29T18:12:10.190Z,23.44
2018-08-29T18:15:13.960Z,23.29
2018-08-29T18:18:17.822Z,23.06
2018-08-29T18:21:21.518Z,22.72
2018-08-29T18:24:25.408Z,22.35
2018-08-29T18:27:29.069Z,21.87
2018-08-29T18:30:33.136Z,21.17
2018-08-29T18:33:36.972Z,20.49
2018-08-29T18:36:40.781Z,20.18
2018-08-29T18:39:44.547Z,19.73
2018-08-29T18:42:48.486Z,19.52
2018-08-29T18:45:52.260Z,19.29
2018-08-29T18:48:55.964Z,19.09
2018-08-29T18:51:59.664Z,19.04
2018-08-29T18:55:03.495Z,18.96
2018-08-29T18:58:07.309Z,18.85
2018-08-29T19:01:11.074Z,18.96
2018-08-29T19:04:14.951Z,18.72
2018-08-29T19:07:18.786Z,18.73
2018-08-29T19:10:22.585Z,18.58
2018-08-29T19:13:26.362Z,18.67
2018-08-29T19:16:30.200Z,18.69
2018-08-29T19:19:34.016Z,18.78
2018-08-29T19:22:37.743Z,18.70
2018-08-29T19:25:42.005Z,18.65
2018-08-29T19:28:46.960Z,18.67
2018-08-29T19:31:51.212Z,18.51
2018-08-29T19:34:55.222Z,18.58
2018-08-29T19:37:59.000Z,18.68
2018-08-29T19:41:04.073Z,18.62
2018-08-29T19:44:08.110Z,18.56
2018-08-29T19:47:11.909Z,18.69
2018-08-29T19:50:15.565Z,18.85
2018-08-29T19:53:19.398Z,18.89
2018-08-29T19:56:23.109Z,19.10
2018-08-29T19:59:26.832Z,19.20
2018-08-29T20:02:30.560Z,19.28
2018-08-29T20:05:34.435Z,19.21
2018-08-29T20:08:38.081Z,19.27
2018-08-29T20:11:41.909Z,19.32
2018-08-29T20:14:47.815Z,19.28
2018-08-29T20:17:51.357Z,19.35
2018-08-29T20:20:55.133Z,19.31
2018-08-29T20:23:58.869Z,19.28
2018-08-29T20:27:02.955Z,19.29
2018-08-29T20:30:06.857Z,19.24
2018-08-29T20:33:10.805Z,19.14
2018-08-29T20:36:14.710Z,19.17
2018-08-29T20:39:18.639Z,19.06
2018-08-29T20:42:23.412Z,19.07
2018-08-29T20:45:27.036Z,19.02
2018-08-29T20:48:30.813Z,18.89
2018-08-29T20:51:34.585Z,18.81
2018-08-29T20:54:38.586Z,18.76
2018-08-29T20:57:43.541Z,18.70
2018-08-29T21:00:47.479Z,18.56
2018-08-29T21:03:51.152Z,18.43
2018-08-29T21:06:54.999Z,18.30
2018-08-29T21:09:58.856Z,18.11
2018-08-29T21:13:02.589Z,18.08
2018-08-29T21:16:06.439Z,17.99
2018-08-29T21:19:10.154Z,17.89
2018-08-29T21:22:13.758Z,17.79
2018-08-29T21:25:17.715Z,17.63
2018-08-29T21:28:32.103Z,17.61
2018-08-29T21:31:47.022Z,17.60
2018-08-29T21:35:34.003Z,17.61
2018-08-29T21:38:37.754Z,17.56
2018-08-29T21:41:42.338Z,17.53
2018-08-29T21:44:57.436Z,17.49
2018-08-29T21:48:43.068Z,17.45
2018-08-29T21:52:22.846Z,17.43
2018-08-29T21:56:50.081Z,17.40
2018-08-29T22:00:35.792Z,17.41
2018-08-29T22:03:57.375Z,17.41
2018-08-29T22:07:01.213Z,17.39
2018-08-29T22:10:05.215Z,17.43
2018-08-29T22:13:08.972Z,17.39
2018-08-29T22:16:12.739Z,17.41
2018-08-29T22:19:16.395Z,17.41
2018-08-29T22:22:20.211Z,17.40
2018-08-29T22:25:24.797Z,17.39
2018-08-29T22:28:28.385Z,17.44
2018-08-29T22:31:32.045Z,17.41
2018-08-29T22:34:35.715Z,17.35
2018-08-29T22:37:39.352Z,17.39
2018-08-29T22:40:43.066Z,17.33
2018-08-29T22:43:46.638Z,17.26
2018-08-29T22:46:50.330Z,17.16
2018-08-29T22:49:53.970Z,17.13
2018-08-29T22:52:57.662Z,17.05
2018-08-29T22:56:01.461Z,17.05
2018-08-29T22:59:05.256Z,16.98
2018-08-29T23:02:08.913Z,16.98
2018-08-29T23:05:12.516Z,16.87
2018-08-29T23:08:16.210Z,16.79
2018-08-29T23:11:19.893Z,16.71
2018-08-29T23:14:23.632Z,16.63
2018-08-29T23:17:27.370Z,16.73
2018-08-29T23:20:30.981Z,16.63
2018-08-29T23:23:34.599Z,16.60
2018-08-29T23:26:38.321Z,16.57
2018-08-29T23:29:41.961Z,16.51
2018-08-29T23:32:45.643Z,16.46
2018-08-29T23:35:49.276Z,16.41
2018-08-29T23:38:52.932Z,16.45
2018-08-29T23:41:56.623Z,16.40
2018-08-29T23:45:01.322Z,16.34
2018-08-29T23:48:05.313Z,16.24
2018-08-29T23:51:09.293Z,16.24
2018-08-29T23:54:12.941Z,16.24
2018-08-29T23:57:16.554Z,16.16
